createdAt,value
2018-01-26T00:00:24.419Z,40.28
2018-01-26T00:02:52.012Z,37.97
2018-01-26T00:05:19.598Z,40.25
2018-01-26T00:07:47.954Z,39.70
2018-01-26T00:10:15.539Z,38.83
2018-01-26T00:12:43.903Z,39.97
2018-01-26T00:15:11.490Z,39.30
2018-01-26T00:17:39.840Z,38.88
2018-01-26T00:20:07.423Z,39.38
2018-01-26T00:22:35.015Z,38.88
2018-01-26T00:25:02.607Z,38.58
2018-01-26T00:27:30.242Z,40.55
2018-01-26T00:29:57.831Z,39.40
2018-01-26T00:32:25.434Z,37.92
2018-01-26T00:34:53.026Z,38.65
2018-01-26T00:37:21.374Z,38.00
2018-01-26T00:39:48.958Z,38.08
2018-01-26T00:42:16.554Z,39.17
2018-01-26T00:44:44.183Z,39.47
2018-01-26T00:47:11.766Z,37.63
2018-01-26T00:49:40.122Z,38.17
2018-01-26T00:52:07.706Z,37.58
2018-01-26T00:54:36.070Z,40.35
2018-01-26T00:57:03.706Z,37.03
2018-01-26T00:59:31.300Z,38.58
2018-01-26T01:01:58.894Z,38.13
2018-01-26T01:04:27.246Z,39.75
2018-01-26T01:06:54.840Z,39.38
2018-01-26T01:09:23.193Z,39.30
2018-01-26T01:11:50.774Z,38.03
2018-01-26T01:14:18.363Z,38.67
2018-01-26T01:16:45.955Z,38.55
2018-01-26T01:19:13.546Z,40.30
2018-01-26T01:21:41.143Z,37.33
2018-01-26T01:24:09.503Z,36.83
2018-01-26T01:26:37.100Z,35.58
2018-01-26T01:29:05.498Z,36.90
2018-01-26T01:31:33.090Z,38.28
2018-01-26T01:34:00.679Z,38.00
2018-01-26T01:36:28.266Z,39.70
2018-01-26T01:38:55.859Z,36.80
2018-01-26T01:41:23.518Z,37.85
2018-01-26T01:43:51.147Z,36.75
2018-01-26T01:46:18.738Z,37.05
2018-01-26T01:48:58.797Z,36.75
2018-01-26T01:51:26.386Z,36.65
2018-01-26T01:53:53.980Z,37.00
2018-01-26T01:56:21.566Z,37.28
2018-01-26T01:58:49.924Z,34.28
2018-01-26T02:01:17.515Z,36.38
2018-01-26T02:03:45.867Z,36.60
2018-01-26T02:06:13.454Z,36.10
2018-01-26T02:08:41.037Z,37.00
2018-01-26T02:11:09.389Z,36.67
2018-01-26T02:13:36.974Z,36.10
2018-01-26T02:16:05.375Z,35.70
2018-01-26T02:18:32.961Z,35.38
2018-01-26T02:21:00.547Z,35.30
2018-01-26T02:23:28.134Z,36.05
2018-01-26T02:25:55.722Z,35.92
2018-01-26T02:28:24.070Z,35.20
2018-01-26T02:30:51.666Z,33.97
2018-01-26T02:33:20.017Z,37.53
2018-01-26T02:35:47.606Z,35.22
2018-01-26T02:38:15.962Z,34.30
2018-01-26T02:40:44.553Z,35.00
2018-01-26T02:43:12.143Z,33.63
2018-01-26T02:45:40.498Z,34.17
2018-01-26T02:48:08.083Z,35.47
2018-01-26T02:50:36.438Z,34.88
2018-01-26T02:53:04.030Z,34.90
2018-01-26T02:55:32.432Z,34.38
2018-01-26T02:58:00.028Z,34.88
2018-01-26T03:00:27.618Z,34.63
2018-01-26T03:02:55.220Z,34.80
2018-01-26T03:05:23.582Z,35.88
2018-01-26T03:07:51.186Z,32.03
2018-01-26T03:10:18.770Z,33.15
2018-01-26T03:12:46.355Z,33.47
2018-01-26T03:15:13.943Z,33.75
2018-01-26T03:17:41.526Z,34.40
2018-01-26T03:20:09.881Z,33.20
2018-01-26T03:22:37.470Z,33.85
2018-01-26T03:25:05.870Z,32.47
2018-01-26T03:27:33.458Z,34.15
2018-01-26T03:30:01.049Z,33.70
2018-01-26T03:32:28.713Z,31.15
2018-01-26T03:34:56.304Z,34.17
2018-01-26T03:37:23.898Z,35.60
2018-01-26T03:39:51.492Z,33.38
2018-01-26T03:42:19.083Z,33.33
2018-01-26T03:44:46.679Z,33.72
2018-01-26T03:47:15.071Z,33.05
2018-01-26T03:49:42.660Z,32.85
2018-01-26T03:52:10.242Z,30.85
2018-01-26T03:54:37.826Z,33.20
2018-01-26T03:57:05.421Z,31.15
2018-01-26T03:59:33.774Z,32.63
2018-01-26T04:02:01.365Z,31.58
2018-01-26T04:04:29.719Z,32.70
2018-01-26T04:06:57.307Z,33.20
2018-01-26T04:09:25.658Z,32.72
2018-01-26T04:11:53.300Z,33.58
2018-01-26T04:14:20.900Z,34.63
2018-01-26T04:16:48.519Z,35.90
2018-01-26T04:19:16.107Z,32.28
2018-01-26T04:21:43.694Z,32.65
2018-01-26T04:24:11.284Z,34.40
2018-01-26T04:26:39.643Z,33.20
2018-01-26T04:29:07.226Z,31.80
2018-01-26T04:31:35.595Z,34.08
2018-01-26T04:34:03.183Z,34.15
2018-01-26T04:36:31.538Z,36.03
2018-01-26T04:38:59.131Z,37.15
2018-01-26T04:41:27.520Z,34.63
2018-01-26T04:43:55.110Z,34.72
2018-01-26T04:46:22.700Z,33.80
2018-01-26T04:48:50.290Z,33.55
2018-01-26T04:51:17.879Z,34.42
2018-01-26T04:53:46.227Z,35.15
2018-01-26T04:56:13.814Z,33.13
2018-01-26T04:58:42.166Z,34.45
2018-01-26T05:01:09.750Z,34.15
2018-01-26T05:03:38.104Z,30.95
2018-01-26T05:06:05.714Z,32.95
2018-01-26T05:08:34.066Z,33.50
2018-01-26T05:11:01.651Z,34.75
2018-01-26T05:13:29.998Z,32.53
2018-01-26T05:15:57.594Z,35.40
2018-01-26T05:18:25.995Z,33.40
2018-01-26T05:20:54.357Z,35.03
2018-01-26T05:23:21.951Z,34.17
2018-01-26T05:25:49.545Z,33.80
2018-01-26T05:28:17.143Z,33.33
2018-01-26T05:30:44.742Z,34.22
2018-01-26T05:33:12.330Z,32.17
2018-01-26T05:35:39.927Z,33.75
2018-01-26T05:38:07.514Z,31.40
2018-01-26T05:40:35.878Z,32.20
2018-01-26T05:43:03.483Z,32.58
2018-01-26T05:45:31.084Z,33.38
2018-01-26T05:47:58.674Z,34.28
2018-01-26T05:50:26.267Z,33.42
2018-01-26T05:52:54.633Z,32.10
2018-01-26T05:55:22.264Z,30.58
2018-01-26T05:57:49.896Z,32.13
2018-01-26T06:00:17.490Z,33.35
2018-01-26T06:02:45.137Z,31.10
2018-01-26T06:05:12.734Z,32.35
2018-01-26T06:07:40.323Z,31.67
2018-01-26T06:10:07.918Z,31.90
2018-01-26T06:12:35.546Z,31.50
2018-01-26T06:15:03.142Z,31.37
2018-01-26T06:17:30.802Z,30.77
2018-01-26T06:19:59.155Z,29.33
2018-01-26T06:22:26.791Z,30.20
2018-01-26T06:24:54.406Z,29.65
2018-01-26T06:27:22.795Z,30.73
2018-01-26T06:29:51.178Z,30.85
2018-01-26T06:32:19.582Z,31.83
2018-01-26T06:34:47.179Z,29.67
2018-01-26T06:37:14.770Z,33.05
2018-01-26T06:39:42.374Z,30.60
2018-01-26T06:42:09.957Z,33.38
2018-01-26T06:44:37.554Z,33.13
2018-01-26T06:47:05.148Z,36.97
2018-01-26T06:49:33.508Z,33.10
2018-01-26T06:52:01.091Z,30.20
2018-01-26T06:54:29.448Z,30.90
2018-01-26T06:56:57.035Z,32.97
2018-01-26T06:59:24.626Z,33.08
2018-01-26T07:02:02.962Z,30.70
2018-01-26T07:04:30.551Z,31.27
2018-01-26T07:06:58.138Z,30.58
2018-01-26T07:09:26.499Z,31.87
2018-01-26T07:11:54.093Z,31.27
2018-01-26T07:14:22.451Z,31.10
2018-01-26T07:16:50.038Z,29.12
2018-01-26T07:19:18.439Z,31.45
2018-01-26T07:21:46.826Z,31.98
2018-01-26T07:24:14.427Z,30.27
2018-01-26T07:26:42.067Z,29.00
2018-01-26T07:29:09.654Z,29.08
2018-01-26T07:31:37.241Z,28.77
2018-01-26T07:34:04.854Z,30.55
2018-01-26T07:36:32.450Z,28.83
2018-01-26T07:39:00.051Z,29.48
2018-01-26T07:41:27.643Z,30.33
2018-01-26T07:43:55.227Z,29.15
2018-01-26T07:46:22.819Z,31.75
2018-01-26T07:48:50.414Z,29.67
2018-01-26T07:51:18.008Z,29.95
2018-01-26T07:53:45.616Z,31.20
2018-01-26T07:56:13.198Z,32.08
2018-01-26T07:58:40.793Z,29.67
2018-01-26T08:01:09.150Z,30.25
2018-01-26T08:03:36.783Z,30.98
2018-01-26T08:06:04.487Z,30.05
2018-01-26T08:08:33.003Z,29.92
2018-01-26T08:11:00.605Z,30.17
2018-01-26T08:13:28.199Z,28.62
2018-01-26T08:15:55.786Z,28.33
2018-01-26T08:18:24.351Z,28.98
2018-01-26T08:20:51.943Z,30.52
2018-01-26T08:23:19.539Z,28.58
2018-01-26T08:25:47.126Z,26.95
2018-01-26T08:28:14.715Z,28.05
2018-01-26T08:30:42.305Z,29.12
2018-01-26T08:33:09.907Z,29.40
2018-01-26T08:35:37.503Z,29.10
2018-01-26T08:38:05.095Z,27.55
2018-01-26T08:40:32.683Z,28.00
2018-01-26T08:43:00.275Z,28.75
2018-01-26T08:45:27.864Z,27.23
2018-01-26T08:47:55.455Z,29.85
2018-01-26T08:50:23.810Z,27.98
2018-01-26T08:52:51.406Z,29.10
2018-01-26T08:55:19.536Z,30.10
2018-01-26T08:57:47.128Z,29.50
2018-01-26T09:00:15.545Z,30.80
2018-01-26T09:02:43.138Z,30.27
2018-01-26T09:05:10.726Z,28.90
2018-01-26T09:07:38.311Z,27.83
2018-01-26T09:10:06.674Z,29.70
2018-01-26T09:12:34.260Z,28.42
2018-01-26T09:15:02.618Z,28.85
2018-01-26T09:17:30.982Z,28.20
2018-01-26T09:19:59.380Z,29.58
2018-01-26T09:22:27.033Z,29.23
2018-01-26T09:24:54.591Z,29.83
2018-01-26T09:27:22.180Z,29.23
2018-01-26T09:29:49.794Z,27.98
2018-01-26T09:32:17.387Z,27.92
2018-01-26T09:34:44.971Z,26.37
2018-01-26T09:37:12.586Z,27.65
2018-01-26T09:39:40.228Z,27.30
2018-01-26T09:42:08.590Z,28.08
2018-01-26T09:44:36.182Z,27.42
2018-01-26T09:47:03.798Z,30.40
2018-01-26T09:49:31.430Z,29.98
2018-01-26T09:51:59.014Z,28.67
2018-01-26T09:54:26.603Z,28.55
2018-01-26T09:56:54.190Z,29.05
2018-01-26T09:59:22.542Z,28.15
2018-01-26T10:01:50.130Z,28.48
2018-01-26T10:04:17.714Z,29.92
2018-01-26T10:06:46.084Z,27.98
2018-01-26T10:09:14.443Z,28.50
2018-01-26T10:11:42.043Z,28.65
2018-01-26T10:14:10.403Z,28.10
2018-01-26T10:16:38.003Z,28.80
2018-01-26T10:19:05.602Z,31.20
2018-01-26T10:21:33.218Z,29.00
2018-01-26T10:24:01.571Z,29.42
2018-01-26T10:26:29.164Z,29.87
2018-01-26T10:28:58.543Z,28.08
2018-01-26T10:31:26.139Z,28.08
2018-01-26T10:33:54.490Z,28.17
2018-01-26T10:36:22.086Z,29.20
2018-01-26T10:38:49.683Z,29.83
2018-01-26T10:41:17.274Z,27.10
2018-01-26T10:43:44.894Z,25.52
2018-01-26T10:46:12.478Z,27.23
2018-01-26T10:48:40.114Z,26.20
2018-01-26T10:51:08.539Z,27.62
2018-01-26T10:53:36.131Z,27.98
2018-01-26T10:56:03.727Z,27.87
2018-01-26T10:58:32.079Z,27.50
2018-01-26T11:00:59.671Z,28.95
2018-01-26T11:03:28.034Z,30.10
2018-01-26T11:05:55.635Z,28.60
2018-01-26T11:08:23.224Z,28.38
2018-01-26T11:10:50.814Z,32.42
2018-01-26T11:13:18.406Z,30.40
2018-01-26T11:15:45.998Z,30.55
2018-01-26T11:18:13.610Z,32.30
2018-01-26T11:20:41.254Z,30.67
2018-01-26T11:23:08.850Z,29.20
2018-01-26T11:25:36.439Z,30.08
2018-01-26T11:28:04.818Z,30.60
2018-01-26T11:30:33.180Z,29.55
2018-01-26T11:33:00.810Z,30.25
2018-01-26T11:35:28.407Z,28.38
2018-01-26T11:37:56.003Z,29.48
2018-01-26T11:40:24.366Z,31.20
2018-01-26T11:42:52.728Z,29.02
2018-01-26T11:45:20.310Z,29.77
2018-01-26T11:47:47.900Z,29.63
2018-01-26T11:50:16.290Z,30.05
2018-01-26T11:52:43.878Z,29.80
2018-01-26T11:55:11.479Z,30.67
2018-01-26T11:57:39.082Z,28.80
2018-01-26T12:00:06.671Z,31.27
2018-01-26T12:02:34.258Z,30.08
2018-01-26T12:05:01.847Z,30.35
2018-01-26T12:07:29.435Z,30.52
2018-01-26T12:09:57.783Z,31.50
2018-01-26T12:12:25.364Z,31.33
2018-01-26T12:14:52.968Z,30.45
2018-01-26T12:17:20.558Z,29.05
2018-01-26T12:19:48.166Z,29.00
2018-01-26T12:22:16.547Z,37.05
2018-01-26T12:24:44.913Z,31.98
2018-01-26T12:27:12.578Z,30.92
2018-01-26T12:29:40.175Z,32.38
2018-01-26T12:32:08.534Z,32.60
2018-01-26T12:34:36.198Z,31.27
2018-01-26T12:37:04.563Z,32.90
2018-01-26T12:39:32.732Z,32.45
2018-01-26T12:42:00.326Z,31.10
2018-01-26T12:44:27.952Z,33.22
2018-01-26T12:46:55.539Z,37.80
2018-01-26T12:49:23.153Z,33.78
2018-01-26T12:51:50.744Z,31.58
2018-01-26T12:54:18.355Z,39.80
2018-01-26T12:56:45.940Z,31.90
2018-01-26T12:59:13.541Z,32.55
2018-01-26T13:01:41.169Z,30.48
2018-01-26T13:04:09.571Z,31.85
2018-01-26T13:06:37.174Z,31.98
2018-01-26T13:09:04.836Z,30.98
2018-01-26T13:11:32.441Z,32.08
2018-01-26T13:14:00.834Z,31.95
2018-01-26T13:16:28.432Z,31.45
2018-01-26T13:18:56.082Z,34.42
2018-01-26T13:21:23.674Z,33.35
2018-01-26T13:23:51.283Z,32.95
2018-01-26T13:26:19.660Z,33.60
2018-01-26T13:28:48.019Z,34.08
2018-01-26T13:31:15.623Z,31.62
2018-01-26T13:33:43.989Z,32.92
2018-01-26T13:36:11.602Z,33.28
2018-01-26T13:38:39.199Z,34.60
2018-01-26T13:41:06.843Z,38.63
2018-01-26T13:43:34.472Z,37.88
2018-01-26T13:46:02.071Z,39.47
2018-01-26T13:48:29.759Z,36.10
2018-01-26T13:50:57.352Z,38.55
2018-01-26T13:53:24.951Z,36.80
2018-01-26T13:55:52.555Z,38.67
2018-01-26T13:58:20.199Z,35.05
2018-01-26T14:00:47.799Z,38.17
2018-01-26T14:03:15.399Z,37.40
2018-01-26T14:05:43.003Z,37.40
2018-01-26T14:08:10.663Z,37.30
2018-01-26T14:10:38.256Z,36.97
2018-01-26T14:13:05.856Z,38.20
2018-01-26T14:15:33.469Z,40.78
2018-01-26T14:18:01.063Z,56.25
2018-01-26T14:20:28.684Z,45.92
2018-01-26T14:22:56.289Z,52.35
2018-01-26T14:25:23.887Z,42.38
2018-01-26T14:27:51.491Z,37.85
2018-01-26T14:30:19.079Z,40.10
2018-01-26T14:32:46.682Z,41.25
2018-01-26T14:35:14.342Z,42.17
2018-01-26T14:37:41.951Z,40.08
2018-01-26T14:40:09.561Z,40.53
2018-01-26T14:42:37.973Z,39.15
2018-01-26T14:45:05.578Z,36.78
2018-01-26T14:47:33.172Z,37.65
2018-01-26T14:50:01.539Z,43.28
2018-01-26T14:52:29.127Z,37.40
2018-01-26T14:54:56.726Z,39.10
2018-01-26T14:57:24.319Z,34.60
2018-01-26T14:59:51.915Z,36.47
2018-01-26T15:02:20.282Z,38.90
2018-01-26T15:04:47.895Z,39.22
2018-01-26T15:07:15.526Z,39.47
2018-01-26T15:09:43.934Z,40.30
2018-01-26T15:12:11.517Z,37.75
2018-01-26T15:14:39.106Z,37.08
2018-01-26T15:17:06.691Z,41.80
2018-01-26T15:19:34.282Z,41.42
2018-01-26T15:22:02.631Z,44.08
2018-01-26T15:24:30.256Z,39.40
2018-01-26T15:26:57.843Z,41.40
2018-01-26T15:29:25.434Z,38.63
2018-01-26T15:31:53.039Z,38.63
2018-01-26T15:34:20.655Z,37.97
2018-01-26T15:36:48.253Z,37.17
2018-01-26T15:39:16.604Z,41.70
2018-01-26T15:41:44.242Z,48.40
2018-01-26T15:44:11.831Z,54.50
2018-01-26T15:46:39.420Z,38.67
2018-01-26T15:49:07.003Z,37.67
2018-01-26T15:51:34.594Z,36.28
2018-01-26T15:54:02.179Z,38.75
2018-01-26T15:56:29.774Z,36.85
2018-01-26T15:58:58.131Z,37.50
2018-01-26T16:01:25.733Z,38.97
2018-01-26T16:03:53.338Z,38.95
2018-01-26T16:06:20.969Z,40.60
2018-01-26T16:08:48.842Z,38.28
2018-01-26T16:11:16.431Z,39.53
2018-01-26T16:13:44.015Z,40.83
2018-01-26T16:16:11.611Z,40.45
2018-01-26T16:18:39.266Z,42.28
2018-01-26T16:21:06.859Z,37.78
2018-01-26T16:23:35.214Z,40.10
2018-01-26T16:26:02.853Z,38.05
2018-01-26T16:28:30.442Z,41.35
2018-01-26T16:30:58.050Z,40.90
2018-01-26T16:33:25.647Z,41.25
2018-01-26T16:35:53.235Z,54.08
2018-01-26T16:38:20.836Z,78.05
2018-01-26T16:40:49.255Z,49.65
2018-01-26T16:43:16.843Z,40.70
2018-01-26T16:45:44.436Z,42.33
2018-01-26T16:48:12.061Z,42.78
2018-01-26T16:50:39.662Z,43.30
2018-01-26T16:53:07.265Z,41.67
2018-01-26T16:55:35.954Z,42.13
2018-01-26T16:58:04.494Z,44.42
2018-01-26T17:00:33.081Z,43.03
2018-01-26T17:03:01.676Z,43.87
2018-01-26T17:05:30.063Z,43.22
2018-01-26T17:07:57.663Z,44.28
2018-01-26T17:10:25.270Z,43.00
2018-01-26T17:12:52.865Z,44.90
2018-01-26T17:15:21.225Z,43.65
2018-01-26T17:17:48.928Z,41.47
2018-01-26T17:20:16.565Z,42.55
2018-01-26T17:22:44.174Z,41.83
2018-01-26T17:25:11.777Z,41.63
2018-01-26T17:27:39.391Z,47.15
2018-01-26T17:30:06.985Z,44.22
2018-01-26T17:32:34.623Z,43.55
2018-01-26T17:35:02.285Z,43.97
2018-01-26T17:37:29.907Z,43.53
2018-01-26T17:39:57.511Z,43.17
2018-01-26T17:42:25.878Z,43.00
2018-01-26T17:44:54.255Z,42.13
2018-01-26T17:47:21.858Z,41.65
2018-01-26T17:49:49.447Z,41.15
2018-01-26T17:52:18.720Z,42.08
2018-01-26T17:54:46.339Z,42.80
2018-01-26T17:57:13.963Z,45.78
2018-01-26T17:59:41.598Z,45.63
2018-01-26T18:02:10.023Z,43.90
2018-01-26T18:04:37.642Z,44.03
2018-01-26T18:07:05.997Z,43.45
2018-01-26T18:09:33.583Z,43.55
2018-01-26T18:12:01.223Z,41.37
2018-01-26T18:14:28.814Z,43.25
2018-01-26T18:16:56.486Z,43.25
2018-01-26T18:19:24.847Z,44.65
2018-01-26T18:21:52.457Z,43.47
2018-01-26T18:24:20.046Z,47.00
2018-01-26T18:26:48.442Z,43.87
2018-01-26T18:29:16.814Z,44.97
2018-01-26T18:31:45.214Z,43.40
2018-01-26T18:34:12.839Z,42.58
2018-01-26T18:36:40.433Z,41.75
2018-01-26T18:39:08.798Z,42.05
2018-01-26T18:41:36.417Z,42.03
2018-01-26T18:44:04.055Z,43.20
2018-01-26T18:46:31.650Z,45.63
2018-01-26T18:48:59.305Z,47.15
2018-01-26T18:51:27.720Z,46.53
2018-01-26T18:53:55.327Z,46.28
2018-01-26T18:56:23.695Z,43.70
2018-01-26T18:58:51.290Z,47.62
2018-01-26T19:01:18.893Z,43.25
2018-01-26T19:03:46.535Z,42.65
2018-01-26T19:06:14.187Z,45.58
2018-01-26T19:08:41.795Z,47.85
2018-01-26T19:11:12.641Z,43.38
2018-01-26T19:13:40.289Z,46.63
2018-01-26T19:16:07.894Z,48.95
2018-01-26T19:18:36.470Z,44.75
2018-01-26T19:21:04.110Z,43.25
2018-01-26T19:23:31.707Z,46.40
2018-01-26T19:25:59.323Z,44.63
2018-01-26T19:28:26.919Z,46.67
2018-01-26T19:30:54.512Z,47.20
2018-01-26T19:33:22.185Z,47.80
2018-01-26T19:35:50.619Z,49.80
2018-01-26T19:38:18.230Z,52.35
2018-01-26T19:40:46.647Z,51.40
2018-01-26T19:43:14.315Z,60.50
2018-01-26T19:45:41.919Z,54.55
2018-01-26T19:48:09.513Z,48.22
2018-01-26T19:50:37.901Z,49.22
2018-01-26T19:53:06.270Z,46.92
2018-01-26T19:55:34.635Z,48.03
2018-01-26T19:58:02.239Z,47.20
2018-01-26T20:00:29.862Z,47.35
2018-01-26T20:06:03.898Z,47.92
2018-01-26T20:08:38.278Z,47.97
2018-01-26T20:11:05.882Z,47.30
2018-01-26T20:13:33.477Z,49.60
2018-01-26T20:16:01.584Z,46.97
2018-01-26T20:18:30.395Z,48.50
2018-01-26T20:20:58.329Z,61.55
2018-01-26T20:23:26.942Z,67.07
2018-01-26T20:25:54.551Z,63.08
2018-01-26T20:28:23.378Z,49.10
2018-01-26T20:30:50.991Z,49.00
2018-01-26T20:33:19.015Z,51.30
2018-01-26T20:35:46.986Z,49.40
2018-01-26T20:38:14.636Z,45.63
2018-01-26T20:40:42.246Z,47.88
2018-01-26T20:43:09.854Z,46.53
2018-01-26T20:45:39.720Z,47.80
2018-01-26T20:48:07.686Z,45.45
2018-01-26T20:50:35.515Z,47.38
2018-01-26T20:53:04.140Z,48.35
2018-01-26T20:55:31.978Z,48.35
2018-01-26T20:58:00.507Z,48.65
2018-01-26T21:00:28.139Z,47.33
2018-01-26T21:02:56.510Z,49.63
2018-01-26T21:05:24.406Z,48.85
2018-01-26T21:07:52.002Z,52.42
2018-01-26T21:10:20.199Z,50.70
2018-01-26T21:12:48.129Z,49.17
2018-01-26T21:15:15.966Z,52.55
2018-01-26T21:17:44.886Z,51.22
2018-01-26T21:20:12.494Z,53.08
2018-01-26T21:22:41.112Z,51.78
2018-01-26T21:25:08.721Z,50.08
2018-01-26T21:27:36.375Z,52.83
2018-01-26T21:30:04.138Z,52.58
2018-01-26T21:32:31.742Z,53.55
2018-01-26T21:34:59.494Z,55.12
2018-01-26T21:37:27.153Z,55.60
2018-01-26T21:39:55.819Z,55.50
2018-01-26T21:42:24.455Z,55.10
2018-01-26T21:44:52.403Z,54.95
2018-01-26T21:47:20.018Z,53.72
2018-01-26T21:49:48.699Z,52.20
2018-01-26T21:52:16.552Z,54.47
2018-01-26T21:54:44.493Z,58.47
2018-01-26T21:57:12.112Z,55.72
2018-01-26T21:59:39.991Z,55.15
2018-01-26T22:02:07.608Z,54.78
2018-01-26T22:04:41.446Z,55.45
2018-01-26T22:10:14.805Z,56.65
2018-01-26T22:12:42.422Z,54.20
2018-01-26T22:15:10.286Z,57.13
2018-01-26T22:17:38.107Z,57.80
2018-01-26T22:20:06.080Z,59.45
2018-01-26T22:22:33.674Z,57.75
2018-01-26T22:25:01.287Z,58.13
2018-01-26T22:27:29.908Z,60.10
2018-01-26T22:29:57.506Z,55.90
2018-01-26T22:32:25.186Z,56.35
2018-01-26T22:34:52.787Z,55.83
2018-01-26T22:37:21.391Z,59.30
2018-01-26T22:39:49.273Z,60.45
2018-01-26T22:42:17.143Z,58.53
2018-01-26T22:44:45.769Z,58.80
2018-01-26T22:47:13.366Z,57.50
2018-01-26T22:49:41.794Z,57.08
2018-01-26T22:52:09.602Z,57.70
2018-01-26T22:54:37.423Z,57.90
2018-01-26T22:57:06.110Z,58.15
2018-01-26T22:59:33.982Z,57.60
2018-01-26T23:02:01.894Z,58.28
2018-01-26T23:04:29.718Z,59.10
2018-01-26T23:06:57.698Z,57.90
2018-01-26T23:09:25.760Z,54.53
2018-01-26T23:11:53.372Z,54.75
2018-01-26T23:14:21.027Z,54.60
2018-01-26T23:16:48.622Z,60.47
2018-01-26T23:19:16.214Z,58.60
2018-01-26T23:21:43.814Z,59.88
2018-01-26T23:24:11.423Z,58.72
2018-01-26T23:26:40.012Z,58.05
2018-01-26T23:29:08.735Z,58.28
2018-01-26T23:31:36.338Z,57.60
2018-01-26T23:34:04.270Z,56.72
2018-01-26T23:36:31.874Z,56.78
2018-01-26T23:38:59.465Z,55.88
2018-01-26T23:41:27.055Z,57.22
2018-01-26T23:43:54.647Z,58.35
2018-01-26T23:46:22.282Z,55.38
2018-01-26T23:48:49.870Z,56.92
2018-01-26T23:51:17.512Z,55.00
2018-01-26T23:53:45.102Z,56.70
2018-01-26T23:56:12.695Z,54.90
2018-01-26T23:58:40.310Z,57.08
